Terminal Aerodrome Forecast
Issued by NWS Omaha/Valley, NE

Home | Current Version | Previous Version | Text Only | Print | Product List | Glossary On
Versions: 1 2 3 4 5 6 7 8 9 10 11 12 13 14 15 16 17 18 19 20 21 22 23 24 25 26 27 28 29 30 31 32
000
FTUS43 KOAX 042323
TAFOFK
TAF
KOFK 042323Z 0500/0524 09008KT P6SM SCT035 BKN150
      TEMPO 0500/0503 BKN035
     FM050300 10005KT P6SM SCT060 OVC150
      TEMPO 0506/0510 -RA BKN060
     FM051000 09004KT 5SM BR SCT012 SCT040 BKN150
     FM051400 11005KT P6SM BKN080
     FM051800 15009KT P6SM BKN150=

USA.gov is the U.S. government's official web portal to all federal, state and local government web resources and services.